createdAt,value
2019-02-18T00:00:51.092Z,15.80
2019-02-18T00:03:20.373Z,15.67
2019-02-18T00:05:49.673Z,14.50
2019-02-18T00:08:19.008Z,13.17
2019-02-18T00:10:48.352Z,14.00
2019-02-18T00:13:17.678Z,14.77
2019-02-18T00:15:47.020Z,15.83
2019-02-18T00:18:16.335Z,16.00
2019-02-18T00:20:45.792Z,16.53
2019-02-18T00:23:15.110Z,16.43
2019-02-18T00:25:44.401Z,16.77
2019-02-18T00:28:13.731Z,17.97
2019-02-18T00:30:43.052Z,17.67
2019-02-18T00:33:12.336Z,17.13
2019-02-18T00:35:41.660Z,16.43
2019-02-18T00:38:10.944Z,17.07
2019-02-18T00:40:40.230Z,17.20
2019-02-18T00:43:09.557Z,16.07
2019-02-18T00:45:38.851Z,14.80
2019-02-18T00:48:08.126Z,14.80
2019-02-18T00:50:37.449Z,15.47
2019-02-18T00:53:06.760Z,15.60
2019-02-18T00:55:36.036Z,13.70
2019-02-18T00:58:05.362Z,14.40
2019-02-18T01:00:34.726Z,14.83
2019-02-18T01:03:04.711Z,15.67
2019-02-18T01:05:34.036Z,14.27
2019-02-18T01:08:03.318Z,14.47
2019-02-18T01:10:32.640Z,14.37
2019-02-18T01:13:01.921Z,13.90
2019-02-18T01:15:31.236Z,13.77
2019-02-18T01:18:00.550Z,13.80
2019-02-18T01:20:29.878Z,14.03
2019-02-18T01:22:59.213Z,14.70
2019-02-18T01:25:28.568Z,13.80
2019-02-18T01:27:57.904Z,13.50
2019-02-18T01:30:27.227Z,14.00
2019-02-18T01:32:56.515Z,13.70
2019-02-18T01:35:25.872Z,13.73
2019-02-18T01:37:55.151Z,13.50
2019-02-18T01:40:24.487Z,15.37
2019-02-18T01:42:53.808Z,13.77
2019-02-18T01:45:23.127Z,15.00
2019-02-18T01:47:52.480Z,15.43
2019-02-18T01:50:21.876Z,15.00
2019-02-18T01:52:51.214Z,14.23
2019-02-18T01:55:20.506Z,14.23
2019-02-18T01:57:49.827Z,14.20
2019-02-18T02:00:19.168Z,16.70
2019-02-18T02:02:48.447Z,14.50
2019-02-18T02:05:18.685Z,14.17
2019-02-18T02:07:55.937Z,14.67
2019-02-18T02:10:19.068Z,13.83
2019-02-18T02:12:48.793Z,13.13
2019-02-18T02:15:21.391Z,12.60
2019-02-18T02:17:50.675Z,14.43
2019-02-18T02:20:20.000Z,13.70
2019-02-18T02:22:50.475Z,13.70
2019-02-18T02:25:19.783Z,14.40
2019-02-18T02:27:49.117Z,15.93
2019-02-18T02:30:18.439Z,14.40
2019-02-18T02:32:47.865Z,14.17
2019-02-18T02:35:17.224Z,15.27
2019-02-18T02:37:46.571Z,13.80
2019-02-18T02:40:15.938Z,15.37
2019-02-18T02:42:45.252Z,13.43
2019-02-18T02:45:15.069Z,15.03
2019-02-18T02:47:44.361Z,13.53
2019-02-18T02:50:14.107Z,14.23
2019-02-18T02:52:44.036Z,13.43
2019-02-18T02:55:13.749Z,12.73
2019-02-18T02:57:43.029Z,12.97
2019-02-18T03:00:12.486Z,12.20
2019-02-18T03:02:41.813Z,12.90
2019-02-18T03:05:11.624Z,13.30
2019-02-18T03:07:40.966Z,12.53
2019-02-18T03:10:10.657Z,13.13
2019-02-18T03:12:39.984Z,13.00
2019-02-18T03:15:09.879Z,14.30
2019-02-18T03:17:39.276Z,15.40
2019-02-18T03:20:08.808Z,16.33
2019-02-18T03:22:38.217Z,15.47
2019-02-18T03:25:24.212Z,13.83
2019-02-18T03:27:59.965Z,15.03
2019-02-18T03:30:56.304Z,14.23
2019-02-18T03:33:32.989Z,15.23
2019-02-18T03:36:02.280Z,13.80
2019-02-18T03:38:32.155Z,14.57
2019-02-18T03:41:03.430Z,15.67
2019-02-18T03:43:33.297Z,15.17
2019-02-18T03:46:02.607Z,15.50
2019-02-18T03:48:31.896Z,14.50
2019-02-18T03:51:01.193Z,15.83
2019-02-18T03:53:30.570Z,15.13
2019-02-18T03:55:59.898Z,14.03
2019-02-18T03:58:29.278Z,14.80
2019-02-18T04:00:59.114Z,14.40
2019-02-18T04:03:28.901Z,14.20
2019-02-18T04:05:58.230Z,14.60
2019-02-18T04:08:27.512Z,13.97
2019-02-18T04:10:56.855Z,14.73
2019-02-18T04:13:26.225Z,14.77
2019-02-18T04:15:55.517Z,14.20
2019-02-18T04:18:24.848Z,14.87
2019-02-18T04:20:54.172Z,14.07
2019-02-18T04:23:23.497Z,13.40
2019-02-18T04:25:52.859Z,14.50
2019-02-18T04:28:22.189Z,13.77
2019-02-18T04:30:51.539Z,13.80
2019-02-18T04:33:20.911Z,14.47
2019-02-18T04:35:50.237Z,15.30
2019-02-18T04:38:19.577Z,15.37
2019-02-18T04:40:48.908Z,15.23
2019-02-18T04:43:18.212Z,15.33
2019-02-18T04:45:47.601Z,15.40
2019-02-18T04:48:16.882Z,15.67
2019-02-18T04:50:46.196Z,14.33
2019-02-18T04:53:15.528Z,16.37
2019-02-18T04:55:44.809Z,14.67
2019-02-18T04:58:14.160Z,15.37
2019-02-18T05:00:43.502Z,14.80
2019-02-18T05:03:12.838Z,14.77
2019-02-18T05:05:42.130Z,14.13
2019-02-18T05:08:11.465Z,13.93
2019-02-18T05:10:40.878Z,14.47
2019-02-18T05:13:10.163Z,14.33
2019-02-18T05:15:40.807Z,14.93
2019-02-18T05:18:10.712Z,14.10
2019-02-18T05:20:39.996Z,14.23
2019-02-18T05:23:09.332Z,13.80
2019-02-18T05:25:38.615Z,14.80
2019-02-18T05:28:07.924Z,14.63
2019-02-18T05:30:37.210Z,15.40
2019-02-18T05:33:06.557Z,16.87
2019-02-18T05:35:35.890Z,15.93
2019-02-18T05:38:05.276Z,17.10
2019-02-18T05:40:34.559Z,16.97
2019-02-18T05:43:03.910Z,16.23
2019-02-18T05:45:33.277Z,17.23
2019-02-18T05:48:02.569Z,15.60
2019-02-18T05:50:31.905Z,14.67
2019-02-18T05:53:01.320Z,14.80
2019-02-18T05:55:31.702Z,15.43
2019-02-18T05:58:00.988Z,14.97
2019-02-18T06:00:30.326Z,18.23
2019-02-18T06:02:59.720Z,16.00
2019-02-18T06:05:29.125Z,16.67
2019-02-18T06:07:58.418Z,15.33
2019-02-18T06:10:27.716Z,14.57
2019-02-18T06:12:57.112Z,14.77
2019-02-18T06:15:26.413Z,15.00
2019-02-18T06:17:55.696Z,14.97
2019-02-18T06:20:25.033Z,15.50
2019-02-18T06:22:54.320Z,13.70
2019-02-18T06:25:23.679Z,14.57
2019-02-18T06:27:53.017Z,15.07
2019-02-18T06:30:22.392Z,14.57
2019-02-18T06:32:51.747Z,14.87
2019-02-18T06:35:21.138Z,14.57
2019-02-18T06:37:50.460Z,13.77
2019-02-18T06:40:19.753Z,14.67
2019-02-18T06:42:49.092Z,13.10
2019-02-18T06:45:37.352Z,13.97
2019-02-18T06:48:18.988Z,15.40
2019-02-18T06:50:48.267Z,18.40
2019-02-18T06:53:17.618Z,17.83
2019-02-18T06:55:46.919Z,17.57
2019-02-18T06:58:35.214Z,17.13
2019-02-18T07:01:15.769Z,17.27
2019-02-18T07:03:58.116Z,18.53
2019-02-18T07:06:55.545Z,17.67
2019-02-18T07:09:30.121Z,18.27
2019-02-18T07:12:04.829Z,17.17
2019-02-18T07:14:34.212Z,17.20
2019-02-18T07:17:03.612Z,19.03
2019-02-18T07:19:33.019Z,19.73
2019-02-18T07:22:02.369Z,21.13
2019-02-18T07:24:31.704Z,19.10
2019-02-18T07:27:01.140Z,19.63
2019-02-18T07:29:30.514Z,21.23
2019-02-18T07:31:59.891Z,22.40
2019-02-18T07:34:29.323Z,19.80
2019-02-18T07:36:58.697Z,21.50
2019-02-18T07:39:28.132Z,19.37
2019-02-18T07:41:57.696Z,18.47
2019-02-18T07:44:28.040Z,17.13
2019-02-18T07:46:57.484Z,18.33
2019-02-18T07:49:26.868Z,15.20
2019-02-18T07:51:56.262Z,16.53
2019-02-18T07:54:25.813Z,15.67
2019-02-18T07:56:55.290Z,15.47
2019-02-18T07:59:24.701Z,14.20
2019-02-18T08:01:54.122Z,13.23
2019-02-18T08:04:23.637Z,14.63
2019-02-18T08:06:54.133Z,14.17
2019-02-18T08:09:23.460Z,17.07
2019-02-18T08:11:52.882Z,15.63
2019-02-18T08:14:22.181Z,14.80
2019-02-18T08:16:51.579Z,15.40
2019-02-18T08:19:20.975Z,15.50
2019-02-18T08:21:50.428Z,13.00
2019-02-18T08:24:19.741Z,12.57
2019-02-18T08:26:49.078Z,10.37
2019-02-18T08:29:18.501Z,10.73
2019-02-18T08:31:47.845Z,10.40
2019-02-18T08:34:17.208Z,10.53
2019-02-18T08:36:46.504Z,10.23
2019-02-18T08:39:15.845Z,9.93
2019-02-18T08:41:45.199Z,9.20
2019-02-18T08:44:14.560Z,10.33
2019-02-18T08:46:43.941Z,10.67
2019-02-18T08:49:13.330Z,11.33
2019-02-18T08:51:42.757Z,11.80
2019-02-18T08:54:12.177Z,11.73
2019-02-18T08:56:42.564Z,12.43
2019-02-18T08:59:12.024Z,13.03
2019-02-18T09:01:41.539Z,12.97
2019-02-18T09:04:10.852Z,12.73
2019-02-18T09:06:40.180Z,13.20
2019-02-18T09:09:09.919Z,14.10
2019-02-18T09:11:39.416Z,14.27
2019-02-18T09:14:08.792Z,13.07
2019-02-18T09:16:38.128Z,13.80
2019-02-18T09:19:07.448Z,13.57
2019-02-18T09:21:36.748Z,12.70
2019-02-18T09:24:25.100Z,12.77
2019-02-18T09:26:54.396Z,12.47
2019-02-18T09:29:23.704Z,13.50
2019-02-18T09:31:53.036Z,15.23
2019-02-18T09:34:22.373Z,15.57
2019-02-18T09:36:51.745Z,16.43
2019-02-18T09:39:30.570Z,16.30
2019-02-18T09:41:53.018Z,17.23
2019-02-18T09:44:22.297Z,16.23
2019-02-18T09:46:52.032Z,16.73
2019-02-18T09:49:21.316Z,16.67
2019-02-18T09:51:50.689Z,15.43
2019-02-18T09:54:19.965Z,16.10
2019-02-18T09:56:49.297Z,15.23
2019-02-18T09:59:18.597Z,16.03
2019-02-18T10:01:47.919Z,15.03
2019-02-18T10:04:17.286Z,16.00
2019-02-18T10:06:46.640Z,14.67
2019-02-18T10:09:16.004Z,14.70
2019-02-18T10:11:45.377Z,14.00
2019-02-18T10:14:14.742Z,15.30
2019-02-18T10:16:44.175Z,15.33
2019-02-18T10:19:14.616Z,16.10
2019-02-18T10:21:43.955Z,16.20
2019-02-18T10:24:13.376Z,16.90
2019-02-18T10:26:42.818Z,18.23
2019-02-18T10:29:12.186Z,17.53
2019-02-18T10:31:41.819Z,18.50
2019-02-18T10:34:11.872Z,20.73
2019-02-18T10:36:41.229Z,22.70
2019-02-18T10:39:10.628Z,21.93
2019-02-18T10:41:39.988Z,22.53
2019-02-18T10:44:09.408Z,23.40
2019-02-18T10:46:40.614Z,24.87
2019-02-18T10:49:19.425Z,26.33
2019-02-18T10:51:40.822Z,25.53
2019-02-18T10:54:10.489Z,27.40
2019-02-18T10:56:40.018Z,26.87
2019-02-18T10:59:09.415Z,26.67
2019-02-18T11:01:38.785Z,26.23
2019-02-18T11:04:08.172Z,26.83
2019-02-18T11:06:37.527Z,28.10
2019-02-18T11:09:10.531Z,27.30
2019-02-18T11:11:39.897Z,28.43
2019-02-18T11:14:09.231Z,29.33
2019-02-18T11:16:38.800Z,30.00
2019-02-18T11:19:08.160Z,28.73
2019-02-18T11:21:37.482Z,28.83
2019-02-18T11:24:06.878Z,28.83
2019-02-18T11:26:36.161Z,29.37
2019-02-18T11:29:05.493Z,29.00
2019-02-18T11:31:34.860Z,29.60
2019-02-18T11:34:04.257Z,27.93
2019-02-18T11:36:33.664Z,29.23
2019-02-18T11:39:05.804Z,29.07
2019-02-18T11:41:35.204Z,29.67
2019-02-18T11:44:05.440Z,30.60
2019-02-18T11:46:35.790Z,31.57
2019-02-18T11:49:05.281Z,33.47
2019-02-18T11:51:34.700Z,31.77
2019-02-18T11:54:04.053Z,33.67
2019-02-18T11:56:34.430Z,33.87
2019-02-18T11:59:03.870Z,32.30
2019-02-18T12:01:34.312Z,32.80
2019-02-18T12:04:03.818Z,32.70
2019-02-18T12:06:33.245Z,33.67
2019-02-18T12:09:02.608Z,33.60
2019-02-18T12:11:38.146Z,32.37
2019-02-18T12:14:04.297Z,34.63
2019-02-18T12:16:33.872Z,34.57
2019-02-18T12:19:03.308Z,34.03
2019-02-18T12:21:33.765Z,35.23
2019-02-18T12:24:03.146Z,36.20
2019-02-18T12:26:33.397Z,36.40
2019-02-18T12:29:02.763Z,38.97
2019-02-18T12:31:32.206Z,43.40
2019-02-18T12:34:01.656Z,45.30
2019-02-18T12:36:30.980Z,44.67
2019-02-18T12:39:01.329Z,45.03
2019-02-18T12:41:31.443Z,46.10
2019-02-18T12:44:00.829Z,48.43
2019-02-18T12:46:30.252Z,49.30
2019-02-18T12:49:00.656Z,47.87
2019-02-18T12:51:30.080Z,48.97
2019-02-18T12:54:05.049Z,49.53
2019-02-18T12:56:30.696Z,48.37
2019-02-18T12:59:00.096Z,50.77
2019-02-18T13:01:29.500Z,50.87
2019-02-18T13:03:58.955Z,50.60
2019-02-18T13:06:28.406Z,51.00
2019-02-18T13:08:58.897Z,51.60
2019-02-18T13:11:28.336Z,51.43
2019-02-18T13:13:58.797Z,50.57
2019-02-18T13:16:28.193Z,53.03
2019-02-18T13:18:57.612Z,52.07
2019-02-18T13:21:26.992Z,51.60
2019-02-18T13:23:56.434Z,51.93
2019-02-18T13:26:25.890Z,49.97
2019-02-18T13:28:56.129Z,52.67
2019-02-18T13:31:25.580Z,50.63
2019-02-18T13:33:56.070Z,49.13
2019-02-18T13:36:25.439Z,52.17
2019-02-18T13:38:54.880Z,50.17
2019-02-18T13:41:24.231Z,49.37
2019-02-18T13:43:54.532Z,49.30
2019-02-18T13:46:23.923Z,49.40
2019-02-18T13:48:53.344Z,50.30
2019-02-18T13:51:24.439Z,50.20
2019-02-18T13:53:53.780Z,48.57
2019-02-18T13:56:23.125Z,47.93
2019-02-18T13:58:53.202Z,49.60
2019-02-18T14:01:22.564Z,50.27
2019-02-18T14:03:51.996Z,49.27
2019-02-18T14:06:21.281Z,49.40
2019-02-18T14:08:50.734Z,48.60
2019-02-18T14:11:20.159Z,46.83
2019-02-18T14:13:50.260Z,48.50
2019-02-18T14:16:19.574Z,49.03
2019-02-18T14:18:49.020Z,47.30
2019-02-18T14:21:18.421Z,48.10
2019-02-18T14:23:47.881Z,47.67
2019-02-18T14:26:17.237Z,47.97
2019-02-18T14:28:46.610Z,47.60
2019-02-18T14:31:17.066Z,46.73
2019-02-18T14:33:46.512Z,47.30
2019-02-18T14:36:16.021Z,46.57
2019-02-18T14:38:45.431Z,48.40
2019-02-18T14:41:14.858Z,48.57
2019-02-18T14:43:44.277Z,46.77
2019-02-18T14:46:13.761Z,46.43
2019-02-18T14:48:43.188Z,47.30
2019-02-18T14:51:13.595Z,46.33
2019-02-18T14:53:43.012Z,46.40
2019-02-18T14:56:15.153Z,47.60
2019-02-18T14:58:44.516Z,46.77
2019-02-18T15:01:14.326Z,47.13
2019-02-18T15:03:43.800Z,45.50
2019-02-18T15:06:13.125Z,47.37
2019-02-18T15:08:42.554Z,44.93
2019-02-18T15:11:12.744Z,45.83
2019-02-18T15:13:42.051Z,46.17
2019-02-18T15:16:11.376Z,44.73
2019-02-18T15:18:40.692Z,45.13
2019-02-18T15:21:10.149Z,45.90
2019-02-18T15:23:39.556Z,45.87
2019-02-18T15:26:09.592Z,46.80
2019-02-18T15:28:38.992Z,45.90
2019-02-18T15:31:09.116Z,45.80
2019-02-18T15:33:38.512Z,46.10
2019-02-18T15:36:07.873Z,47.00
2019-02-18T15:38:37.244Z,46.40
2019-02-18T15:41:06.642Z,47.20
2019-02-18T15:43:36.795Z,47.33
2019-02-18T15:46:06.656Z,47.30
2019-02-18T15:48:36.451Z,47.73
2019-02-18T15:51:06.751Z,51.33
2019-02-18T15:53:36.392Z,50.03
2019-02-18T15:56:05.966Z,54.53
2019-02-18T15:58:36.548Z,56.33
2019-02-18T16:01:06.493Z,58.83
2019-02-18T16:03:36.119Z,57.40
2019-02-18T16:06:05.542Z,59.03
2019-02-18T16:08:35.866Z,55.23
2019-02-18T16:11:05.219Z,54.47
2019-02-18T16:13:34.752Z,53.00
2019-02-18T16:16:04.156Z,53.73
2019-02-18T16:18:34.416Z,52.07
2019-02-18T16:21:03.831Z,51.73
2019-02-18T16:23:34.032Z,48.43
2019-02-18T16:26:03.542Z,55.93
2019-02-18T16:28:33.696Z,53.67
2019-02-18T16:31:03.068Z,55.23
2019-02-18T16:33:32.480Z,78.93
2019-02-18T16:36:01.844Z,68.80
2019-02-18T16:38:31.247Z,57.87
2019-02-18T16:41:00.646Z,47.53
2019-02-18T16:43:30.741Z,44.80
2019-02-18T16:46:00.084Z,44.33
2019-02-18T16:48:30.272Z,43.53
2019-02-18T16:51:00.440Z,46.10
2019-02-18T16:53:29.745Z,43.70
2019-02-18T16:55:59.137Z,44.50
2019-02-18T16:58:28.520Z,44.83
2019-02-18T17:00:58.532Z,44.97
2019-02-18T17:03:27.890Z,46.73
2019-02-18T17:05:58.087Z,45.63
2019-02-18T17:08:27.455Z,53.13
2019-02-18T17:10:57.852Z,52.67
2019-02-18T17:13:28.276Z,50.73
2019-02-18T17:15:58.686Z,51.77
2019-02-18T17:18:29.056Z,50.87
2019-02-18T17:20:58.407Z,48.50
2019-02-18T17:23:27.868Z,45.03
2019-02-18T17:25:57.341Z,45.33
2019-02-18T17:28:26.780Z,43.77
2019-02-18T17:30:56.241Z,46.07
2019-02-18T17:33:25.655Z,47.17
2019-02-18T17:35:54.922Z,53.20
2019-02-18T17:38:24.290Z,62.20
2019-02-18T17:40:53.696Z,66.67
2019-02-18T17:43:23.100Z,52.47
2019-02-18T17:45:52.501Z,51.63
2019-02-18T17:48:21.894Z,54.33
2019-02-18T17:50:51.318Z,61.83
2019-02-18T17:53:20.680Z,56.53
2019-02-18T17:55:50.044Z,51.57
2019-02-18T17:58:19.462Z,50.67
2019-02-18T18:00:50.920Z,50.43
2019-02-18T18:03:20.252Z,43.70
2019-02-18T18:05:49.643Z,46.33
2019-02-18T18:08:18.927Z,46.40
2019-02-18T18:10:48.253Z,47.97
2019-02-18T18:13:24.986Z,44.43
2019-02-18T18:15:48.668Z,45.67
2019-02-18T18:18:20.021Z,47.90
2019-02-18T18:20:49.415Z,56.77
2019-02-18T18:23:18.791Z,48.00
2019-02-18T18:25:48.278Z,47.57
2019-02-18T18:28:17.722Z,55.40
2019-02-18T18:30:47.176Z,54.83
2019-02-18T18:33:17.376Z,51.80
2019-02-18T18:35:46.751Z,50.87
2019-02-18T18:38:17.120Z,50.97
2019-02-18T18:40:46.532Z,51.83
2019-02-18T18:43:16.061Z,52.00
2019-02-18T18:45:45.495Z,54.30
2019-02-18T18:48:14.989Z,51.47
2019-02-18T18:50:44.400Z,60.60
2019-02-18T18:53:15.019Z,56.40
2019-02-18T18:55:44.368Z,54.83
2019-02-18T18:58:13.740Z,64.63
2019-02-18T19:00:43.069Z,64.57
2019-02-18T19:03:12.441Z,58.53
2019-02-18T19:05:41.850Z,57.30
2019-02-18T19:08:11.501Z,53.87
2019-02-18T19:10:40.864Z,53.77
2019-02-18T19:13:10.879Z,54.27
2019-02-18T19:15:49.253Z,54.70
2019-02-18T19:18:12.140Z,75.57
2019-02-18T19:20:41.483Z,65.30
2019-02-18T19:23:12.001Z,81.90
2019-02-18T19:25:41.446Z,61.13
2019-02-18T19:28:10.887Z,63.87
2019-02-18T19:30:40.311Z,58.13
2019-02-18T19:33:09.732Z,56.00
2019-02-18T19:35:39.121Z,59.07
2019-02-18T19:38:08.656Z,57.50
2019-02-18T19:40:37.999Z,57.33
2019-02-18T19:43:08.265Z,63.87
2019-02-18T19:45:37.750Z,57.27
2019-02-18T19:48:07.425Z,62.43
2019-02-18T19:50:36.907Z,59.30
2019-02-18T19:53:06.362Z,66.47
2019-02-18T19:55:35.808Z,61.20
2019-02-18T19:58:05.267Z,56.43
2019-02-18T20:00:34.706Z,57.53
2019-02-18T20:03:05.086Z,61.03
2019-02-18T20:05:34.556Z,59.80
2019-02-18T20:08:03.934Z,59.67
2019-02-18T20:10:34.118Z,57.63
2019-02-18T20:13:04.166Z,55.87
2019-02-18T20:15:33.659Z,59.07
2019-02-18T20:18:03.072Z,54.40
2019-02-18T20:20:32.464Z,58.47
2019-02-18T20:23:01.856Z,55.60
2019-02-18T20:25:32.052Z,58.73
2019-02-18T20:28:01.556Z,56.60
2019-02-18T20:30:32.782Z,58.87
2019-02-18T20:33:02.178Z,57.40
2019-02-18T20:35:31.729Z,56.37
2019-02-18T20:38:01.134Z,56.67
2019-02-18T20:40:30.560Z,55.87
2019-02-18T20:43:00.035Z,73.17
2019-02-18T20:45:29.360Z,63.87
2019-02-18T20:47:58.737Z,69.93
2019-02-18T20:50:28.119Z,70.17
2019-02-18T20:52:57.585Z,75.63
2019-02-18T20:55:27.076Z,73.10
2019-02-18T20:57:56.439Z,73.57
2019-02-18T21:00:25.208Z,66.37
2019-02-18T21:02:54.600Z,81.00
2019-02-18T21:05:23.936Z,82.10
2019-02-18T21:07:55.228Z,81.60
2019-02-18T21:10:24.628Z,73.93
2019-02-18T21:12:54.014Z,68.57
2019-02-18T21:15:23.432Z,68.17
2019-02-18T21:17:53.848Z,65.80
2019-02-18T21:20:24.390Z,68.63
2019-02-18T21:22:54.815Z,63.53
2019-02-18T21:25:24.276Z,68.97
2019-02-18T21:27:53.722Z,65.63
2019-02-18T21:30:23.108Z,61.60
2019-02-18T21:32:52.564Z,64.63
2019-02-18T21:35:22.042Z,59.83
2019-02-18T21:37:51.396Z,63.60
2019-02-18T21:40:20.740Z,61.13
2019-02-18T21:42:50.132Z,59.87
2019-02-18T21:45:18.912Z,59.50
2019-02-18T21:47:49.332Z,65.87
2019-02-18T21:50:19.608Z,63.17
2019-02-18T21:52:49.036Z,68.70
2019-02-18T21:55:18.462Z,66.47
2019-02-18T21:57:47.812Z,67.43
2019-02-18T22:00:22.285Z,65.63
2019-02-18T22:02:51.634Z,68.07
2019-02-18T22:05:21.197Z,65.17
2019-02-18T22:07:50.583Z,65.90
2019-02-18T22:10:19.907Z,64.80
2019-02-18T22:12:49.256Z,62.77
2019-02-18T22:15:18.571Z,60.33
2019-02-18T22:17:47.960Z,62.00
2019-02-18T22:20:17.622Z,61.60
2019-02-18T22:22:47.024Z,64.20
2019-02-18T22:25:16.298Z,61.13
2019-02-18T22:27:45.612Z,64.57
2019-02-18T22:30:15.408Z,64.20
2019-02-18T22:32:44.832Z,63.83
2019-02-18T22:35:15.013Z,66.83
2019-02-18T22:37:44.390Z,64.20
2019-02-18T22:40:14.397Z,66.23
2019-02-18T22:42:43.835Z,66.30
2019-02-18T22:45:14.076Z,63.57
2019-02-18T22:47:43.543Z,62.33
2019-02-18T22:50:13.165Z,60.73
2019-02-18T22:52:42.512Z,61.73
2019-02-18T22:55:12.551Z,62.23
2019-02-18T22:57:41.883Z,58.83
2019-02-18T23:00:32.248Z,59.20
2019-02-18T23:03:01.578Z,60.77
2019-02-18T23:05:30.970Z,57.00
2019-02-18T23:08:00.319Z,61.20
2019-02-18T23:10:29.704Z,57.60
2019-02-18T23:12:59.068Z,58.77
2019-02-18T23:15:28.469Z,58.83
2019-02-18T23:17:58.568Z,57.57
2019-02-18T23:20:27.952Z,57.23
2019-02-18T23:22:57.266Z,59.87
2019-02-18T23:25:26.576Z,58.83
2019-02-18T23:27:55.876Z,58.30
2019-02-18T23:30:25.160Z,60.83
2019-02-18T23:32:55.367Z,61.93
2019-02-18T23:35:24.663Z,60.30
2019-02-18T23:37:53.972Z,58.83
2019-02-18T23:40:23.245Z,61.10
2019-02-18T23:42:52.595Z,58.77
2019-02-18T23:45:21.897Z,59.53
2019-02-18T23:47:51.492Z,59.13
2019-02-18T23:50:20.811Z,67.50
2019-02-18T23:52:50.300Z,66.43
2019-02-18T23:55:19.628Z,60.77
2019-02-18T23:57:48.931Z,60.73
